Time;durP1;ratioP1;P1;durP2;ratioP2;P2;SDS_P1;SDS_P2;PMS_P1;PMS_P2;Temp;Humidity;BMP_temperature;BMP_pressure;BME280_temperature;BME280_humidity;BME280_pressure;Samples;Min_cycle;Max_cycle;Signal;HPM_P1;HPM_P2
2022/04/02 00:01:01;;;;;;;2.40;2.30;;;;;;;2.26;100.00;101748.69;10379436;28;20037;-75
2022/04/02 00:06:01;;;;;;;7.22;2.13;;;;;;;2.18;100.00;101748.47;10385462;28;20037;-75
2022/04/02 00:11:02;;;;;;;3.22;3.03;;;;;;;2.10;100.00;101746.38;10382604;28;20029;-75
2022/04/02 00:16:02;;;;;;;4.53;2.47;;;;;;;2.05;100.00;101740.59;10376271;28;20053;-75
2022/04/02 00:21:03;;;;;;;2.78;2.00;;;;;;;2.20;100.00;101732.31;10377179;28;20041;-75
2022/04/02 00:26:04;;;;;;;2.65;2.45;;;;;;;2.30;100.00;101735.97;10377979;28;20057;-74
2022/04/02 00:31:05;;;;;;;7.80;3.20;;;;;;;2.35;100.00;101730.22;10377607;28;20034;-75
2022/04/02 00:36:06;;;;;;;2.38;2.20;;;;;;;2.41;100.00;101737.75;10375672;28;20034;-75
2022/04/02 00:41:07;;;;;;;11.20;3.38;;;;;;;2.48;100.00;101738.94;10375487;28;20041;-75
2022/04/02 00:46:09;;;;;;;2.72;2.53;;;;;;;2.56;100.00;101732.03;10375195;28;20519;-74
2022/04/02 00:51:11;;;;;;;3.20;2.90;;;;;;;2.55;100.00;101730.34;10360493;28;20045;-75
2022/04/02 00:56:12;;;;;;;3.83;2.13;;;;;;;2.42;100.00;101736.78;10377122;28;20041;-75
2022/04/02 01:01:13;;;;;;;2.42;2.22;;;;;;;2.45;100.00;101733.84;10378336;28;20477;-75
2022/04/02 01:06:13;;;;;;;2.10;1.92;;;;;;;2.50;100.00;101740.53;10373576;28;20366;-75
2022/04/02 01:11:14;;;;;;;2.30;2.13;;;;;;;2.62;100.00;101745.88;10357465;28;20041;-75
2022/04/02 01:16:14;;;;;;;2.88;2.22;;;;;;;2.63;100.00;101742.22;10377024;28;20093;-75
2022/04/02 01:21:15;;;;;;;4.93;3.13;;;;;;;2.68;100.00;101737.31;10375224;28;20038;-75
2022/04/02 01:26:15;;;;;;;7.95;3.15;;;;;;;2.74;100.00;101740.38;10374658;28;20045;-75
2022/04/02 01:31:16;;;;;;;4.20;2.92;;;;;;;2.74;100.00;101744.84;10358531;28;20556;-75
2022/04/02 01:36:16;;;;;;;4.20;2.90;;;;;;;2.75;100.00;101750.09;10374281;28;20034;-75
2022/04/02 01:41:17;;;;;;;3.85;2.03;;;;;;;2.83;100.00;101751.28;10374800;28;20429;-74
2022/04/02 01:46:17;;;;;;;6.40;3.13;;;;;;;2.75;100.00;101747.41;10372893;28;20041;-74
2022/04/02 01:51:18;;;;;;;8.63;3.15;;;;;;;2.64;100.00;101757.28;10374154;28;20042;-75
2022/04/02 01:56:18;;;;;;;2.78;2.30;;;;;;;2.51;100.00;101755.59;10375258;28;20069;-73
2022/04/02 02:01:19;;;;;;;4.15;3.10;;;;;;;2.36;100.00;101753.31;10374734;28;20111;-75
2022/04/02 02:06:19;;;;;;;13.00;3.28;;;;;;;2.31;100.00;101757.19;10374745;28;20113;-74
2022/04/02 02:11:20;;;;;;;6.93;3.15;;;;;;;2.30;100.00;101755.50;10356337;28;20046;-74
2022/04/02 02:16:21;;;;;;;4.47;3.20;;;;;;;2.20;100.00;101759.03;10358661;28;20030;-75
2022/04/02 02:21:21;;;;;;;2.58;2.38;;;;;;;2.21;100.00;101764.25;10383527;28;20034;-74
2022/04/02 02:26:22;;;;;;;4.13;1.90;;;;;;;2.14;100.00;101759.50;10384387;28;20119;-74
2022/04/02 02:31:22;;;;;;;5.05;2.65;;;;;;;2.05;100.00;101766.44;10381020;28;20060;-73
2022/04/02 02:36:23;;;;;;;5.28;3.15;;;;;;;1.99;100.00;101769.59;10384703;28;20080;-74
2022/04/02 02:41:23;;;;;;;3.97;3.13;;;;;;;1.98;100.00;101773.22;10381311;28;20100;-76
2022/04/02 02:46:24;;;;;;;7.25;2.70;;;;;;;2.05;100.00;101764.63;10363400;28;20072;-74
2022/04/02 02:51:24;;;;;;;7.43;3.67;;;;;;;2.07;100.00;101773.38;10378481;28;20057;-74
2022/04/02 02:56:25;;;;;;;3.85;2.60;;;;;;;2.08;100.00;101772.41;10378101;28;20065;-73
2022/04/02 03:01:25;;;;;;;4.10;2.85;;;;;;;2.05;100.00;101772.63;10378241;28;20038;-74
2022/04/02 03:06:25;;;;;;;8.65;4.05;;;;;;;2.13;100.00;101771.19;10378994;28;20064;-75
2022/04/02 03:11:26;;;;;;;3.13;2.60;;;;;;;2.24;100.00;101773.88;10378803;28;20065;-73
2022/04/02 03:16:26;;;;;;;2.38;2.15;;;;;;;2.19;100.00;101763.53;10376774;28;20125;-72
2022/04/02 03:21:28;;;;;;;3.33;3.08;;;;;;;2.15;100.00;101775.44;10378414;28;20038;-74
2022/04/02 03:26:29;;;;;;;3.45;3.15;;;;;;;2.11;100.00;101765.97;10377345;28;20056;-74
2022/04/02 03:31:29;;;;;;;3.22;2.97;;;;;;;1.99;100.00;101774.94;10376029;28;20371;-75
2022/04/02 03:36:29;;;;;;;4.18;2.78;;;;;;;2.01;100.00;101773.88;10377946;28;20034;-73
2022/04/02 03:41:30;;;;;;;2.70;2.50;;;;;;;2.05;100.00;101764.63;10377311;28;20038;-73
2022/04/02 03:51:51;;;;;;;4.53;3.30;;;;;;;2.00;100.00;101773.97;10375719;28;20033;-73
2022/04/02 03:56:51;;;;;;;4.18;3.67;;;;;;;2.10;100.00;101781.13;10377335;28;20040;-74
2022/04/02 04:01:52;;;;;;;4.57;4.18;;;;;;;2.08;100.00;101787.59;10376819;28;20371;-75
2022/04/02 04:06:52;;;;;;;6.15;2.70;;;;;;;2.01;100.00;101778.31;10378071;28;20030;-74
2022/04/02 04:11:54;;;;;;;3.22;3.03;;;;;;;1.98;100.00;101775.91;10376160;28;20061;-74
2022/04/02 04:16:54;;;;;;;4.30;2.67;;;;;;;1.89;100.00;101781.97;10376239;28;20110;-72
2022/04/02 04:21:55;;;;;;;3.10;2.90;;;;;;;1.78;100.00;101793.47;10376317;28;20029;-74
2022/04/02 04:26:56;;;;;;;3.05;2.83;;;;;;;1.66;100.00;101807.75;10376342;28;20119;-73
2022/04/02 04:31:57;;;;;;;7.78;3.17;;;;;;;1.60;100.00;101806.44;10375904;28;20080;-73
2022/04/02 04:36:57;;;;;;;2.78;2.58;;;;;;;1.50;100.00;101814.28;10376169;28;20045;-73
2022/04/02 04:41:57;;;;;;;4.07;3.03;;;;;;;1.42;100.00;101814.00;10375283;28;20038;-74
2022/04/02 04:46:58;;;;;;;4.57;3.42;;;;;;;1.39;100.00;101816.91;10374143;28;20093;-74
2022/04/02 04:51:58;;;;;;;7.53;3.00;;;;;;;1.39;100.00;101825.75;10358691;28;20040;-74
2022/04/02 04:56:59;;;;;;;3.53;3.22;;;;;;;1.32;100.00;101839.69;10375087;28;20038;-74
2022/04/02 05:01:59;;;;;;;4.15;3.85;;;;;;;1.17;100.00;101831.84;10375068;28;20049;-75
2022/04/02 05:06:59;;;;;;;7.22;3.20;;;;;;;1.24;100.00;101839.41;10375164;28;20095;-74
2022/04/02 05:12:00;;;;;;;3.78;2.75;;;;;;;1.22;100.00;101844.00;10375182;28;20053;-74
2022/04/02 05:17:00;;;;;;;4.25;2.97;;;;;;;1.09;100.00;101834.25;10375194;28;20048;-73
2022/04/02 05:22:01;;;;;;;12.88;5.13;;;;;;;1.08;100.00;101851.19;10374736;28;20033;-74
2022/04/02 05:27:01;;;;;;;6.53;4.63;;;;;;;1.11;100.00;101853.63;10374698;28;20042;-74
2022/04/02 05:32:03;;;;;;;7.97;4.80;;;;;;;1.10;100.00;101859.09;10375363;28;20377;-74
2022/04/02 05:37:04;;;;;;;5.80;3.65;;;;;;;1.11;100.00;101855.47;10375543;28;20065;-73
2022/04/02 05:42:05;;;;;;;3.90;3.00;;;;;;;1.12;100.00;101874.03;10373170;28;20069;-74
2022/04/02 05:47:06;;;;;;;5.85;4.13;;;;;;;1.13;100.00;101882.88;10373291;28;20117;-73
2022/04/02 05:52:07;;;;;;;4.30;3.75;;;;;;;1.22;100.00;101884.88;10372549;28;20033;-74
2022/04/02 05:57:07;;;;;;;7.63;3.72;;;;;;;1.25;100.00;101889.16;10381815;28;20121;-74
2022/04/02 06:02:08;;;;;;;8.43;3.55;;;;;;;1.40;100.00;101893.31;10365615;28;20425;-74
2022/04/02 06:07:08;;;;;;;6.32;3.97;;;;;;;1.63;100.00;101892.47;10379879;28;20121;-74
2022/04/02 06:12:10;;;;;;;7.10;4.25;;;;;;;1.76;100.00;101911.09;10381643;28;20418;-75
2022/04/02 06:17:10;;;;;;;4.32;3.38;;;;;;;1.86;100.00;101919.28;10379847;28;20034;-74
2022/04/02 06:22:11;;;;;;;4.65;3.08;;;;;;;1.93;100.00;101915.16;10380807;28;20129;-75
2022/04/02 06:27:11;;;;;;;2.88;2.67;;;;;;;2.08;100.00;101923.84;10380199;28;20038;-75
2022/04/02 06:32:12;;;;;;;3.40;3.15;;;;;;;3.37;100.00;101925.19;10382011;28;20443;-74
2022/04/02 06:37:12;;;;;;;3.67;3.08;;;;;;;4.78;100.00;101933.84;10380947;28;20037;-74
2022/04/02 06:42:13;;;;;;;14.00;3.83;;;;;;;5.79;99.79;101920.22;10380726;28;20120;-74
2022/04/02 06:47:13;;;;;;;3.42;3.13;;;;;;;6.67;99.97;101925.53;10378782;28;20462;-76
2022/04/02 06:52:14;;;;;;;4.20;3.83;;;;;;;7.26;91.07;101934.19;10379484;28;20037;-74
2022/04/02 06:57:18;;;;;;;7.22;2.70;;;;;;;8.31;96.38;101938.91;10379065;28;20502;-74
2022/04/02 07:02:20;;;;;;;3.92;3.03;;;;;;;8.89;92.71;101949.09;10362195;28;20065;-73
2022/04/02 07:07:20;;;;;;;3.47;3.17;;;;;;;9.26;85.01;101954.16;10376312;28;20453;-75
2022/04/02 07:12:20;;;;;;;3.28;2.95;;;;;;;9.37;74.89;101952.16;10377806;28;20077;-75
2022/04/02 07:17:21;;;;;;;2.78;2.15;;;;;;;9.07;77.31;101963.38;10378594;28;20033;-75
2022/04/02 07:22:22;;;;;;;3.10;2.55;;;;;;;9.42;71.41;101960.66;10378582;28;20042;-77
2022/04/02 07:27:27;;;;;;;12.27;3.45;;;;;;;9.35;71.40;101970.41;10361037;28;20382;-73
2022/04/02 07:32:27;;;;;;;7.20;2.42;;;;;;;9.38;70.12;101980.88;10360797;28;20529;-72
2022/04/02 07:37:58;;;;;;;3.25;3.00;;;;;;;9.68;70.93;101974.06;10378803;28;20089;-73
2022/04/02 07:43:05;;;;;;;2.13;2.03;;;;;;;9.91;72.77;101980.53;10378675;28;20088;-73
2022/04/02 07:48:09;;;;;;;3.20;2.07;;;;;;;9.54;66.02;101984.53;10378809;28;20123;-74
2022/04/02 07:53:22;;;;;;;4.13;2.53;;;;;;;9.73;60.27;101988.81;10378532;28;20362;-73
2022/04/02 07:58:31;;;;;;;2.47;2.03;;;;;;;10.07;57.12;101984.28;10346691;28;20054;-73
2022/04/02 08:03:31;;;;;;;2.70;2.50;;;;;;;9.86;60.13;101999.13;10377103;28;20034;-72
2022/04/02 08:08:32;;;;;;;14.25;2.50;;;;;;;10.48;59.83;101996.00;10376934;28;20104;-73
2022/04/02 08:13:32;;;;;;;2.45;2.17;;;;;;;10.85;57.66;101992.75;10377853;28;20050;-74
2022/04/02 08:18:32;;;;;;;5.15;2.85;;;;;;;10.77;54.93;101997.31;10376068;28;20129;-74
2022/04/02 08:23:33;;;;;;;2.95;2.25;;;;;;;10.41;56.87;102003.97;10376782;28;20037;-75
2022/04/02 08:29:21;;;;;;;6.18;1.70;;;;;;;8.55;52.77;102008.44;10376290;28;20069;-74
2022/04/02 08:34:53;;;;;;;1.88;1.77;;;;;;;6.72;56.14;102020.97;10344631;28;20180;-73
2022/04/02 08:40:06;;;;;;;1.67;1.50;;;;;;;6.17;53.76;102014.53;10389976;28;20091;-74
2022/04/02 08:45:10;;;;;;;1.45;1.45;;;;;;;5.93;60.49;102033.75;10374754;28;20030;-75
2022/04/02 08:50:12;;;;;;;2.03;1.80;;;;;;;6.56;55.56;102046.78;10375190;28;20478;-74
2022/04/02 08:55:37;;;;;;;2.33;2.22;;;;;;;6.85;53.32;102035.97;10390013;28;20037;-73
2022/04/02 09:00:40;;;;;;;2.53;1.67;;;;;;;5.98;53.00;102044.94;10360497;28;20120;-73
2022/04/02 09:06:09;;;;;;;8.48;2.20;;;;;;;6.03;59.11;102042.66;10375622;28;20041;-73
2022/04/02 09:11:23;;;;;;;8.35;2.22;;;;;;;5.94;54.57;102051.59;10374159;28;20074;-74
2022/04/02 09:16:36;;;;;;;2.03;1.92;;;;;;;5.45;54.34;102051.41;10373278;28;20053;-73
2022/04/02 09:21:57;;;;;;;3.10;2.10;;;;;;;5.50;54.53;102059.91;10357681;28;20029;-73
2022/04/02 09:27:23;;;;;;;1.60;1.50;;;;;;;5.60;55.09;102058.09;10374285;28;20374;-73
2022/04/02 09:32:48;;;;;;;10.23;2.17;;;;;;;6.00;58.59;102059.94;10381824;28;20053;-74
2022/04/02 09:38:12;;;;;;;1.50;1.40;;;;;;;7.53;49.58;102050.06;10366762;28;20425;-73
2022/04/02 09:43:25;;;;;;;3.05;2.25;;;;;;;10.42;51.70;102053.53;10383000;28;20052;-74
2022/04/02 09:48:27;;;;;;;3.00;2.20;;;;;;;12.07;40.43;102061.09;10381200;28;20363;-75
2022/04/02 09:53:29;;;;;;;5.40;2.30;;;;;;;11.02;38.14;102057.75;10380716;28;20041;-74
2022/04/02 09:58:51;;;;;;;1.40;1.35;;;;;;;10.81;41.39;102060.97;10381474;28;20041;-74
2022/04/02 10:03:57;;;;;;;7.57;1.70;;;;;;;10.85;41.30;102057.78;10381623;28;20076;-74
2022/04/02 10:09:09;;;;;;;3.53;2.17;;;;;;;12.62;45.20;102046.44;10380630;28;20427;-75
2022/04/02 10:14:10;;;;;;;2.72;2.05;;;;;;;13.82;39.67;102040.91;10363623;28;20077;-71
2022/04/02 10:19:10;;;;;;;1.13;1.13;;;;;;;12.09;36.67;102056.31;10380663;28;20105;-74
2022/04/02 10:24:23;;;;;;;9.63;1.65;;;;;;;9.97;38.52;102063.75;10363010;28;20042;-73
2022/04/02 10:29:29;;;;;;;2.60;1.80;;;;;;;8.42;41.50;102053.88;10379496;28;20029;-73
2022/04/02 10:34:45;;;;;;;2.00;1.90;;;;;;;7.85;43.22;102060.38;10380207;28;20484;-73
2022/04/02 10:39:53;;;;;;;1.58;1.42;;;;;;;10.66;38.27;102056.25;10364958;28;20033;-74
2022/04/02 10:45:08;;;;;;;1.73;1.63;;;;;;;10.02;37.30;102057.84;10379454;28;20033;-74
2022/04/02 10:50:08;;;;;;;2.33;1.83;;;;;;;9.96;37.81;102056.66;10363484;28;20061;-73
2022/04/02 10:55:09;;;;;;;1.92;1.40;;;;;;;11.09;36.79;102048.75;10379027;28;20477;-73
2022/04/02 11:00:10;;;;;;;1.75;1.65;;;;;;;11.53;32.40;102045.56;10363423;28;20069;-79
2022/04/02 11:05:13;;;;;;;1.77;1.73;;;;;;;12.64;36.13;102049.81;10360756;28;20030;-75
2022/04/02 11:10:18;;;;;;;1.75;1.65;;;;;;;10.19;36.40;102046.03;10377424;28;20058;-75
2022/04/02 11:15:23;;;;;;;1.48;1.38;;;;;;;9.34;39.49;102060.63;10376682;28;20168;-76
2022/04/02 11:20:27;;;;;;;1.63;1.23;;;;;;;8.29;40.99;102065.88;10378669;28;20163;-75
2022/04/02 11:25:31;;;;;;;3.28;2.47;;;;;;;7.37;44.08;102060.59;10305378;28;20050;-74
2022/04/02 11:30:32;;;;;;;5.20;2.13;;;;;;;8.73;41.56;102049.75;10378421;28;20079;-75
2022/04/02 11:35:50;;;;;;;2.50;2.00;;;;;;;10.91;35.42;102045.38;10377029;28;20034;-75
2022/04/02 11:40:55;;;;;;;5.38;1.73;;;;;;;11.01;39.41;102034.34;10376860;28;20041;-72
2022/04/02 11:46:21;;;;;;;6.38;2.45;;;;;;;10.91;38.35;102035.41;10376618;28;20382;-73
2022/04/02 11:51:29;;;;;;;6.07;1.98;;;;;;;10.09;42.52;102049.91;10384250;28;20129;-72
2022/04/02 11:56:31;;;;;;;1.80;1.63;;;;;;;9.18;40.86;102055.97;10379584;28;20432;-73
2022/04/02 12:01:41;;;;;;;6.93;1.98;;;;;;;8.48;41.59;102059.50;10376117;28;20026;-73
2022/04/02 12:06:46;;;;;;;1.90;1.80;;;;;;;8.18;42.16;102058.03;10376476;28;20146;-72
2022/04/02 12:11:57;;;;;;;8.68;1.75;;;;;;;9.40;45.76;102063.53;10376885;28;20371;-72
2022/04/02 12:17:05;;;;;;;2.67;1.70;;;;;;;9.89;38.69;102071.00;10377949;28;20092;-72
2022/04/02 12:22:41;;;;;;;1.65;1.48;;;;;;;9.45;38.96;102073.88;10375667;28;20544;-72
2022/04/02 12:27:48;;;;;;;2.05;1.35;;;;;;;8.04;40.54;102047.75;10344253;28;20038;-72
2022/04/02 12:32:49;;;;;;;1.73;1.63;;;;;;;7.66;43.67;102085.59;10375735;28;20048;-73
2022/04/02 12:37:51;;;;;;;2.10;1.98;;;;;;;7.03;45.70;102088.09;10374461;28;20029;-73
2022/04/02 12:42:53;;;;;;;2.03;1.90;;;;;;;6.31;46.82;102094.78;10358081;28;20076;-72
2022/04/02 12:48:04;;;;;;;2.83;2.10;;;;;;;7.66;46.48;102087.47;10373862;28;20030;-73
2022/04/02 12:53:05;;;;;;;1.98;1.88;;;;;;;9.66;39.58;102077.00;10374638;28;20522;-72
2022/04/02 12:58:10;;;;;;;1.92;1.80;;;;;;;10.91;37.80;102065.22;10373354;28;20127;-73
2022/04/02 13:03:30;;;;;;;3.42;2.33;;;;;;;11.59;38.36;102057.59;10372955;28;20109;-76
2022/04/02 13:08:31;;;;;;;2.28;2.17;;;;;;;9.90;35.02;102061.88;10357943;28;20125;-75
2022/04/02 13:13:37;;;;;;;1.58;1.40;;;;;;;10.81;34.22;102061.81;10357509;28;20057;-73
2022/04/02 13:24:22;;;;;;;1.75;1.55;;;;;;;8.61;39.52;102070.78;10373430;28;20041;-78
2022/04/02 13:30:05;;;;;;;2.20;1.75;;;;;;;10.14;40.35;102063.78;10371558;28;20072;-73
2022/04/02 13:35:05;;;;;;;6.93;1.95;;;;;;;10.57;38.22;102056.44;10309101;28;20093;-75
2022/04/02 13:40:06;;;;;;;1.23;1.23;;;;;;;9.69;38.65;102071.25;10373690;28;20038;-75
2022/04/02 13:45:07;;;;;;;1.02;0.93;;;;;;;10.09;39.02;102060.75;10372343;28;20275;-75
2022/04/02 13:50:09;;;;;;;2.20;1.00;;;;;;;9.78;39.52;102064.03;10339915;28;20030;-76
2022/04/02 13:55:11;;;;;;;1.20;1.20;;;;;;;10.73;37.00;102063.72;10341484;28;20021;-73
2022/04/02 14:00:15;;;;;;;1.67;1.58;;;;;;;11.11;34.47;102059.44;10373655;28;20107;-75
2022/04/02 14:05:23;;;;;;;1.50;1.48;;;;;;;11.07;37.30;102052.63;10372697;28;20033;-73
2022/04/02 14:10:23;;;;;;;4.70;0.98;;;;;;;11.61;34.83;102044.66;10372787;28;20049;-73
2022/04/02 14:15:24;;;;;;;1.52;1.42;;;;;;;10.37;33.45;102059.47;10359244;28;20132;-73
2022/04/02 14:20:24;;;;;;;1.88;1.70;;;;;;;9.69;36.97;102063.16;10366115;28;20026;-74
2022/04/02 14:25:49;;;;;;;1.20;1.20;;;;;;;9.25;37.79;102057.03;10365159;28;20049;-72
2022/04/02 14:31:01;;;;;;;3.17;1.90;;;;;;;8.92;41.55;102062.22;10380345;28;20128;-72
2022/04/02 14:36:23;;;;;;;3.75;1.73;;;;;;;8.53;40.13;102068.00;10379925;28;20164;-73
2022/04/02 14:41:57;;;;;;;1.42;1.33;;;;;;;9.23;40.21;102068.00;10380577;28;20030;-72
2022/04/02 14:47:19;;;;;;;2.10;1.58;;;;;;;9.84;38.03;102051.72;10379517;28;20426;-71
2022/04/02 14:53:03;;;;;;;1.95;1.80;;;;;;;10.14;38.77;102056.50;10378880;28;20037;-73
2022/04/02 14:58:34;;;;;;;0.85;0.85;;;;;;;9.59;36.82;102058.88;10377931;28;20382;-71
2022/04/02 15:03:53;;;;;;;1.23;1.13;;;;;;;8.72;37.40;102064.28;10377838;28;20056;-72
2022/04/02 15:09:12;;;;;;;1.55;1.50;;;;;;;7.68;41.73;102067.41;10379659;28;20446;-72
2022/04/02 15:14:15;;;;;;;2.17;2.03;;;;;;;7.71;41.50;102065.44;10379102;28;20112;-71
2022/04/02 15:19:26;;;;;;;6.18;1.85;;;;;;;7.83;42.00;102073.16;10360923;28;20121;-71
2022/04/02 15:24:27;;;;;;;1.30;1.20;;;;;;;7.05;43.28;102069.97;10376365;28;20037;-72
2022/04/02 15:29:31;;;;;;;1.88;1.75;;;;;;;6.41;43.89;102079.50;10344906;28;20038;-70
2022/04/02 15:34:41;;;;;;;1.70;1.60;;;;;;;6.16;44.29;102094.38;10378748;28;20088;-72
2022/04/02 15:39:44;;;;;;;2.60;1.48;;;;;;;6.15;43.84;102092.66;10378770;28;20061;-72
2022/04/02 15:44:46;;;;;;;1.25;1.25;;;;;;;6.22;45.24;102085.75;10378543;28;20033;-71
2022/04/02 15:49:46;;;;;;;0.80;0.80;;;;;;;6.28;44.16;102093.22;10377469;28;20033;-71
2022/04/02 15:54:53;;;;;;;1.70;1.60;;;;;;;6.03;43.92;102093.75;10376037;28;20393;-72
2022/04/02 15:59:55;;;;;;;1.60;1.50;;;;;;;6.09;46.08;102106.66;10377104;28;20469;-71
2022/04/02 16:05:11;;;;;;;2.38;1.95;;;;;;;6.40;44.36;102099.31;10376066;28;20167;-71
2022/04/02 16:10:16;;;;;;;1.73;1.63;;;;;;;6.70;43.36;102098.34;10375712;28;20061;-71
2022/04/02 16:15:20;;;;;;;1.45;1.35;;;;;;;6.68;43.20;102121.84;10359201;28;20049;-71
2022/04/02 16:20:25;;;;;;;1.33;1.23;;;;;;;6.31;44.03;102120.84;10376421;28;20112;-71
2022/04/02 16:25:26;;;;;;;1.30;1.20;;;;;;;6.18;44.44;102127.34;10377194;28;20034;-71
2022/04/02 16:30:27;;;;;;;2.63;1.20;;;;;;;6.22;43.73;102130.59;10374484;28;20103;-72
2022/04/02 16:35:27;;;;;;;3.15;1.50;;;;;;;6.17;44.11;102140.94;10375683;28;20096;-71
2022/04/02 16:40:27;;;;;;;9.13;1.70;;;;;;;6.04;42.90;102152.78;10375132;28;20050;-72
2022/04/02 16:45:28;;;;;;;3.10;1.90;;;;;;;5.75;43.59;102157.19;10374824;28;20079;-71
2022/04/02 16:50:28;;;;;;;4.15;1.67;;;;;;;5.48;44.21;102168.50;10374072;28;20038;-71
2022/04/02 16:55:29;;;;;;;1.60;1.50;;;;;;;5.33;43.96;102163.47;10374522;28;20108;-71
2022/04/02 17:00:32;;;;;;;1.55;1.50;;;;;;;5.28;44.09;102165.69;10374138;28;20038;-71
2022/04/02 17:05:37;;;;;;;1.30;1.20;;;;;;;5.12;42.99;102165.31;10373624;28;20462;-71
2022/04/02 17:10:37;;;;;;;2.20;1.27;;;;;;;5.04;43.94;102174.03;10372831;28;20116;-72
2022/04/02 17:15:37;;;;;;;3.75;1.63;;;;;;;4.89;44.35;102167.28;10373100;28;20417;-72
2022/04/02 17:20:39;;;;;;;2.85;1.50;;;;;;;4.72;44.97;102171.34;10374744;28;20429;-72
2022/04/02 17:25:40;;;;;;;1.15;1.15;;;;;;;4.72;45.25;102192.81;10373141;28;20026;-72
2022/04/02 17:30:42;;;;;;;1.58;1.48;;;;;;;4.55;45.18;102198.75;10373078;28;20390;-72
2022/04/02 17:35:42;;;;;;;1.80;1.70;;;;;;;4.54;46.65;102205.09;10373381;28;20041;-71
2022/04/02 17:40:44;;;;;;;3.95;1.42;;;;;;;4.37;46.46;102210.00;10374268;28;20504;-71
2022/04/02 17:45:49;;;;;;;1.52;1.42;;;;;;;4.28;47.62;102215.25;10375832;28;20045;-72
2022/04/02 17:50:54;;;;;;;2.27;1.27;;;;;;;4.22;47.72;102213.06;10379502;28;20165;-71
2022/04/02 17:56:06;;;;;;;1.35;1.25;;;;;;;4.03;47.99;102230.63;10366193;28;20034;-71
2022/04/02 18:01:09;;;;;;;1.52;1.42;;;;;;;3.99;47.96;102230.97;10383043;28;20032;-71
2022/04/02 18:06:12;;;;;;;11.38;2.17;;;;;;;3.95;49.01;102244.63;10364661;28;20069;-72
2022/04/02 18:11:12;;;;;;;1.42;1.33;;;;;;;3.69;47.02;102243.16;10383164;28;20120;-71
2022/04/02 18:16:14;;;;;;;2.75;1.30;;;;;;;3.65;46.87;102265.78;10366325;28;20115;-72
2022/04/02 18:21:15;;;;;;;4.00;1.77;;;;;;;3.50;45.98;102257.97;10381376;28;20030;-71
2022/04/02 18:26:15;;;;;;;1.15;1.05;;;;;;;3.47;47.12;102268.91;10380155;28;20147;-72
2022/04/02 18:31:16;;;;;;;6.68;1.80;;;;;;;3.37;48.01;102283.97;10381188;28;20465;-71
2022/04/02 18:36:16;;;;;;;4.32;1.95;;;;;;;3.26;48.77;102270.56;10379645;28;20496;-71
2022/04/02 18:41:17;;;;;;;5.47;3.70;;;;;;;3.24;49.06;102293.91;10363578;28;20064;-71
2022/04/02 18:46:17;;;;;;;1.83;1.70;;;;;;;3.15;48.04;102291.91;10378923;28;20088;-72
2022/04/02 18:51:18;;;;;;;3.00;1.70;;;;;;;3.08;48.85;102307.59;10380042;28;20061;-71
2022/04/02 18:56:18;;;;;;;3.47;1.58;;;;;;;3.01;49.07;102314.38;10378714;28;20037;-72
2022/04/02 19:01:18;;;;;;;1.30;1.20;;;;;;;2.99;50.16;102310.94;10379111;28;20613;-72
2022/04/02 19:06:19;;;;;;;2.83;2.20;;;;;;;2.82;50.93;102320.22;10380071;28;20088;-71
2022/04/02 19:11:21;;;;;;;2.15;2.05;;;;;;;2.82;51.50;102327.38;10377818;28;20091;-71
2022/04/02 19:16:21;;;;;;;7.20;2.33;;;;;;;2.63;52.75;102328.72;10377840;28;20056;-72
2022/04/02 19:21:23;;;;;;;1.70;1.38;;;;;;;2.61;52.88;102332.47;10377764;28;20112;-73
2022/04/02 19:26:23;;;;;;;4.18;2.22;;;;;;;2.47;53.72;102336.13;10379814;28;20034;-71
2022/04/02 19:31:24;;;;;;;2.08;1.98;;;;;;;2.43;54.66;102340.00;10380498;28;20061;-71
2022/04/02 19:36:24;;;;;;;1.70;1.60;;;;;;;2.44;55.32;102347.03;10380094;28;20034;-73
2022/04/02 19:41:25;;;;;;;2.97;2.30;;;;;;;2.41;56.70;102356.13;10382163;28;20042;-72
2022/04/02 19:46:28;;;;;;;1.65;1.63;;;;;;;2.38;56.03;102356.34;10380195;28;20122;-73
2022/04/02 19:51:29;;;;;;;8.13;1.98;;;;;;;2.24;57.46;102367.16;10396250;28;20033;-71
2022/04/02 19:56:30;;;;;;;2.00;1.90;;;;;;;2.23;58.39;102374.31;10379018;28;20064;-72
2022/04/02 20:01:32;;;;;;;2.25;2.13;;;;;;;2.15;58.01;102375.81;10363683;28;20113;-71
2022/04/02 20:06:33;;;;;;;2.28;2.08;;;;;;;2.09;59.04;102375.28;10361917;28;20145;-71
2022/04/02 20:11:33;;;;;;;6.40;2.20;;;;;;;2.05;59.91;102379.13;10377722;28;20130;-72
2022/04/02 20:16:35;;;;;;;3.17;2.10;;;;;;;2.04;60.65;102381.88;10379103;28;20425;-71
2022/04/02 20:21:37;;;;;;;4.43;2.00;;;;;;;1.94;61.09;102384.34;10361430;28;20068;-71
2022/04/02 20:26:38;;;;;;;2.33;2.13;;;;;;;1.86;61.60;102390.22;10379037;28;20113;-71
2022/04/02 20:31:38;;;;;;;4.55;2.65;;;;;;;1.84;62.14;102389.44;10378360;28;20522;-72
2022/04/02 20:36:39;;;;;;;2.40;2.30;;;;;;;1.81;63.11;102395.00;10377185;28;20125;-72
2022/04/02 20:41:39;;;;;;;3.10;2.20;;;;;;;1.82;62.47;102399.41;10377718;28;20038;-71
2022/04/02 20:46:39;;;;;;;4.20;2.47;;;;;;;1.78;63.38;102397.03;10375620;28;20029;-71
2022/04/02 20:51:40;;;;;;;8.77;2.83;;;;;;;1.68;62.94;102394.13;10377352;28;20037;-71
2022/04/02 20:56:41;;;;;;;7.05;2.53;;;;;;;1.62;62.37;102405.22;10376127;28;20114;-73
2022/04/02 21:01:42;;;;;;;3.30;2.60;;;;;;;1.46;62.93;102397.38;10377162;28;20038;-72
2022/04/02 21:06:43;;;;;;;4.63;2.75;;;;;;;1.38;63.40;102397.88;10359559;28;20381;-71
2022/04/02 21:11:43;;;;;;;4.80;2.72;;;;;;;1.27;63.34;102391.53;10342369;28;20385;-71
2022/04/02 21:16:43;;;;;;;3.25;2.47;;;;;;;1.10;63.43;102406.81;10378354;28;20058;-71
2022/04/02 21:21:46;;;;;;;3.15;2.85;;;;;;;1.02;63.83;102403.81;10376109;28;20042;-71
2022/04/02 21:26:47;;;;;;;3.67;2.70;;;;;;;0.93;63.66;102402.59;10373280;28;20092;-71
2022/04/02 21:31:48;;;;;;;8.57;2.70;;;;;;;0.90;64.55;102408.09;10373977;28;20033;-71
2022/04/02 21:36:48;;;;;;;3.90;2.42;;;;;;;0.98;64.54;102412.94;10374707;28;20504;-72
2022/04/02 21:41:49;;;;;;;6.47;3.90;;;;;;;0.91;64.38;102400.97;10375665;28;20077;-71
2022/04/02 21:46:49;;;;;;;4.75;3.42;;;;;;;0.87;64.40;102418.13;10373971;28;20026;-72
2022/04/02 21:51:53;;;;;;;4.70;4.22;;;;;;;0.92;64.73;102426.66;10374384;28;20080;-71
2022/04/02 21:56:53;;;;;;;4.75;3.35;;;;;;;1.05;65.32;102413.41;10374593;28;20409;-71
2022/04/02 22:01:57;;;;;;;7.43;3.60;;;;;;;1.17;65.20;102421.47;10375090;28;20038;-72
2022/04/02 22:06:58;;;;;;;7.15;4.03;;;;;;;1.13;64.79;102414.63;10374403;28;20029;-70
2022/04/02 22:11:58;;;;;;;4.57;3.13;;;;;;;1.05;65.38;102414.25;10357944;28;20033;-71
2022/04/02 22:16:59;;;;;;;4.13;3.55;;;;;;;1.15;65.40;102414.56;10374223;28;20088;-71
2022/04/02 22:21:59;;;;;;;3.80;3.10;;;;;;;1.51;66.41;102421.09;10374126;28;20120;-72
2022/04/02 22:27:00;;;;;;;3.53;3.22;;;;;;;1.89;66.78;102425.72;10356355;28;20065;-72
2022/04/02 22:32:01;;;;;;;3.58;3.28;;;;;;;2.23;66.77;102445.63;10375346;28;20033;-72
2022/04/02 22:37:01;;;;;;;3.10;2.80;;;;;;;2.44;67.51;102437.94;10378995;28;20466;-72
2022/04/02 22:42:01;;;;;;;4.95;3.35;;;;;;;2.46;66.47;102436.03;10380746;28;20037;-72
2022/04/02 22:47:02;;;;;;;8.15;3.50;;;;;;;2.24;65.58;102432.16;10379621;28;20494;-73
2022/04/02 22:52:03;;;;;;;3.85;3.42;;;;;;;2.02;66.08;102439.94;10346560;28;20037;-72
2022/04/02 22:57:03;;;;;;;2.67;2.47;;;;;;;1.76;65.63;102431.88;10379154;28;20049;-71
2022/04/02 23:02:05;;;;;;;10.18;2.45;;;;;;;1.57;67.58;102436.72;10379874;28;20036;-71
2022/04/02 23:07:08;;;;;;;2.95;2.75;;;;;;;1.39;67.27;102436.94;10362288;28;20152;-70
2022/04/02 23:12:08;;;;;;;3.08;2.03;;;;;;;1.20;67.17;102443.59;10378129;28;20066;-71
2022/04/02 23:17:09;;;;;;;8.23;2.90;;;;;;;1.09;67.93;102441.63;10381253;28;20068;-71
2022/04/02 23:22:09;;;;;;;4.40;2.90;;;;;;;0.93;67.71;102444.41;10380838;28;20070;-71
2022/04/02 23:27:10;;;;;;;8.90;3.00;;;;;;;0.75;68.36;102434.88;10379266;28;20382;-72
2022/04/02 23:32:10;;;;;;;8.85;2.83;;;;;;;0.56;68.75;102444.00;10383322;28;20516;-71
2022/04/02 23:37:11;;;;;;;6.72;3.53;;;;;;;0.37;68.54;102430.97;10378198;28;20058;-71